createdAt,value
2018-06-28T00:00:02.884Z,17.40
2018-06-28T00:02:31.793Z,18.83
2018-06-28T00:05:37.522Z,15.23
2018-06-28T00:08:06.404Z,20.03
2018-06-28T00:10:35.258Z,16.60
2018-06-28T00:13:04.147Z,18.30
2018-06-28T00:15:32.993Z,18.57
2018-06-28T00:18:01.848Z,19.25
2018-06-28T00:20:30.707Z,15.73
2018-06-28T00:22:59.570Z,18.33
2018-06-28T00:25:28.448Z,17.17
2018-06-28T00:27:58.973Z,19.60
2018-06-28T00:30:27.825Z,15.37
2018-06-28T00:32:56.698Z,20.00
2018-06-28T00:35:25.549Z,18.70
2018-06-28T00:37:54.408Z,18.40
2018-06-28T00:40:23.281Z,16.07
2018-06-28T00:42:52.182Z,18.87
2018-06-28T00:45:21.084Z,16.13
2018-06-28T00:47:50.015Z,17.13
2018-06-28T00:50:19.103Z,18.33
2018-06-28T00:52:47.956Z,16.20
2018-06-28T00:55:16.825Z,18.33
2018-06-28T00:57:45.674Z,15.63
2018-06-28T01:00:14.562Z,15.83
2018-06-28T01:02:43.410Z,19.13
2018-06-28T01:05:12.270Z,17.00
2018-06-28T01:07:41.121Z,17.27
2018-06-28T01:10:10.124Z,20.80
2018-06-28T01:13:42.796Z,16.37
2018-06-28T01:16:11.691Z,16.87
2018-06-28T01:18:40.553Z,18.80
2018-06-28T01:21:09.410Z,18.53
2018-06-28T01:23:38.249Z,21.37
2018-06-28T01:26:07.123Z,20.70
2018-06-28T01:28:35.961Z,23.80
2018-06-28T01:31:04.857Z,21.10
2018-06-28T01:33:33.838Z,23.17
2018-06-28T01:36:06.312Z,19.67
2018-06-28T01:38:35.173Z,20.80
2018-06-28T01:41:04.036Z,23.60
2018-06-28T01:43:46.700Z,21.07
2018-06-28T01:46:16.443Z,22.43
2018-06-28T01:48:45.558Z,17.87
2018-06-28T01:51:14.419Z,17.20
2018-06-28T01:53:43.264Z,20.73
2018-06-28T01:56:12.189Z,23.77
2018-06-28T01:58:41.059Z,20.83
2018-06-28T02:01:09.947Z,18.37
2018-06-28T02:03:38.839Z,24.23
2018-06-28T02:06:07.733Z,22.40
2018-06-28T02:08:36.631Z,19.07
2018-06-28T02:11:05.477Z,19.87
2018-06-28T02:13:34.399Z,22.60
2018-06-28T02:16:03.273Z,23.30
2018-06-28T02:18:35.165Z,23.30
2018-06-28T02:21:04.033Z,22.07
2018-06-28T02:23:32.938Z,22.37
2018-06-28T02:26:01.821Z,23.07
2018-06-28T02:28:30.710Z,24.87
2018-06-28T02:30:59.606Z,20.53
2018-06-28T02:33:28.512Z,27.47
2018-06-28T02:35:57.386Z,23.77
2018-06-28T02:38:26.278Z,23.93
2018-06-28T02:40:55.292Z,23.07
2018-06-28T02:43:24.226Z,23.13
2018-06-28T02:45:53.154Z,22.37
2018-06-28T02:48:22.055Z,24.40
2018-06-28T02:50:50.934Z,24.47
2018-06-28T02:53:19.823Z,21.87
2018-06-28T02:55:48.711Z,25.30
2018-06-28T02:58:17.585Z,25.07
2018-06-28T03:00:46.510Z,24.70
2018-06-28T03:03:15.493Z,24.63
2018-06-28T03:05:44.402Z,27.73
2018-06-28T03:08:13.255Z,29.03
2018-06-28T03:10:42.139Z,28.03
2018-06-28T03:13:10.994Z,21.90
2018-06-28T03:15:39.838Z,23.07
2018-06-28T03:18:08.743Z,27.47
2018-06-28T03:20:37.614Z,26.77
2018-06-28T03:23:06.506Z,22.47
2018-06-28T03:25:35.421Z,24.60
2018-06-28T03:28:04.294Z,26.53
2018-06-28T03:30:33.173Z,27.50
2018-06-28T03:33:02.031Z,30.70
2018-06-28T03:35:30.878Z,27.67
2018-06-28T03:37:59.878Z,28.33
2018-06-28T03:40:28.633Z,32.07
2018-06-28T03:42:57.521Z,25.87
2018-06-28T03:45:26.398Z,24.97
2018-06-28T03:47:55.285Z,25.50
2018-06-28T03:50:24.206Z,30.10
2018-06-28T03:52:53.091Z,31.57
2018-06-28T03:55:21.938Z,25.07
2018-06-28T03:57:50.782Z,32.75
2018-06-28T04:00:19.687Z,30.43
2018-06-28T04:02:48.526Z,27.10
2018-06-28T04:05:17.387Z,33.53
2018-06-28T04:07:46.239Z,25.73
2018-06-28T04:10:15.128Z,27.77
2018-06-28T04:12:44.009Z,31.50
2018-06-28T04:15:13.136Z,28.70
2018-06-28T04:17:41.999Z,28.80
2018-06-28T04:20:10.898Z,25.40
2018-06-28T04:22:39.765Z,25.10
2018-06-28T04:25:08.633Z,31.65
2018-06-28T04:27:37.534Z,25.73
2018-06-28T04:30:06.475Z,31.07
2018-06-28T04:32:35.468Z,25.90
2018-06-28T04:35:04.349Z,28.40
2018-06-28T04:37:33.190Z,28.07
2018-06-28T04:40:02.050Z,28.33
2018-06-28T04:42:30.908Z,26.67
2018-06-28T04:44:59.796Z,26.37
2018-06-28T04:47:28.666Z,27.13
2018-06-28T04:49:57.586Z,29.60
2018-06-28T04:52:26.362Z,28.30
2018-06-28T04:54:55.368Z,25.27
2018-06-28T04:57:24.226Z,33.10
2018-06-28T04:59:53.067Z,29.40
2018-06-28T05:02:21.959Z,31.97
2018-06-28T05:04:50.833Z,27.23
2018-06-28T05:07:19.755Z,27.57
2018-06-28T05:09:48.586Z,28.30
2018-06-28T05:12:17.468Z,30.13
2018-06-28T05:14:46.363Z,30.10
2018-06-28T05:18:10.402Z,30.10
2018-06-28T05:20:39.260Z,27.07
2018-06-28T05:23:08.136Z,24.87
2018-06-28T05:25:37.005Z,31.07
2018-06-28T05:28:05.903Z,31.87
2018-06-28T05:30:34.754Z,24.87
2018-06-28T05:33:03.648Z,30.05
2018-06-28T05:35:32.502Z,26.70
2018-06-28T05:38:01.389Z,26.67
2018-06-28T05:40:30.444Z,29.43
2018-06-28T05:42:59.268Z,28.60
2018-06-28T05:45:28.160Z,25.53
2018-06-28T05:47:57.033Z,23.23
2018-06-28T05:50:25.873Z,22.00
2018-06-28T05:52:54.720Z,26.12
2018-06-28T05:55:23.595Z,22.87
2018-06-28T05:57:52.429Z,22.13
2018-06-28T06:00:21.294Z,24.33
2018-06-28T06:02:51.174Z,18.83
2018-06-28T06:05:20.035Z,18.53
2018-06-28T06:07:48.909Z,19.40
2018-06-28T06:10:17.773Z,18.80
2018-06-28T06:12:46.602Z,18.93
2018-06-28T06:15:15.529Z,18.53
2018-06-28T06:17:44.333Z,16.83
2018-06-28T06:20:13.273Z,15.03
2018-06-28T06:22:42.095Z,15.17
2018-06-28T06:28:48.395Z,12.00
2018-06-28T06:31:17.291Z,12.27
2018-06-28T06:33:46.144Z,14.00
2018-06-28T06:36:15.018Z,9.30
2018-06-28T06:38:43.854Z,13.83
2018-06-28T06:41:12.758Z,12.35
2018-06-28T06:43:41.576Z,8.68
2018-06-28T06:46:10.730Z,10.53
2018-06-28T06:48:42.197Z,8.45
2018-06-28T06:51:11.062Z,9.93
2018-06-28T06:53:39.942Z,10.30
2018-06-28T06:56:08.817Z,7.85
2018-06-28T06:58:37.677Z,8.45
2018-06-28T07:01:06.536Z,7.85
2018-06-28T07:03:35.411Z,8.20
2018-06-28T07:06:04.258Z,10.63
2018-06-28T07:08:33.082Z,7.90
2018-06-28T07:11:02.038Z,8.08
2018-06-28T07:13:30.889Z,7.17
2018-06-28T07:15:59.973Z,9.70
2018-06-28T07:18:28.785Z,6.92
2018-06-28T07:20:57.632Z,5.85
2018-06-28T07:23:26.888Z,6.53
2018-06-28T07:25:56.557Z,6.60
2018-06-28T07:28:25.673Z,8.73
2018-06-28T07:30:54.701Z,9.30
2018-06-28T07:33:27.011Z,6.78
2018-06-28T07:35:56.073Z,5.50
2018-06-28T07:38:25.029Z,6.58
2018-06-28T07:40:53.908Z,5.25
2018-06-28T07:43:22.861Z,8.88
2018-06-28T07:45:51.753Z,3.92
2018-06-28T07:48:20.655Z,5.17
2018-06-28T07:50:49.517Z,4.25
2018-06-28T07:53:18.395Z,5.47
2018-06-28T07:55:50.194Z,6.05
2018-06-28T07:58:19.062Z,5.87
2018-06-28T08:00:47.935Z,4.40
2018-06-28T08:03:16.760Z,6.20
2018-06-28T08:05:45.698Z,4.15
2018-06-28T08:08:17.673Z,3.20
2018-06-28T08:10:50.518Z,3.72
2018-06-28T08:13:21.506Z,2.33
2018-06-28T08:15:59.343Z,2.80
2018-06-28T08:18:29.124Z,3.20
2018-06-28T08:20:58.917Z,3.42
2018-06-28T08:23:28.805Z,2.67
2018-06-28T08:25:57.655Z,2.70
2018-06-28T08:28:26.602Z,2.98
2018-06-28T08:30:55.535Z,2.40
2018-06-28T08:33:24.441Z,2.65
2018-06-28T08:35:53.478Z,2.33
2018-06-28T08:38:22.391Z,2.17
2018-06-28T08:40:51.244Z,2.17
2018-06-28T08:43:20.135Z,2.33
2018-06-28T08:45:48.988Z,1.95
2018-06-28T08:48:17.869Z,2.70
2018-06-28T08:50:46.778Z,2.50
2018-06-28T08:53:15.629Z,3.58
2018-06-28T08:55:44.501Z,4.03
2018-06-28T08:59:07.803Z,2.30
2018-06-28T09:01:36.722Z,2.60
2018-06-28T09:04:05.669Z,2.27
2018-06-28T09:06:34.577Z,2.40
2018-06-28T09:09:03.591Z,2.70
2018-06-28T09:11:32.465Z,2.90
2018-06-28T09:14:01.369Z,3.37
2018-06-28T09:16:30.205Z,5.10
2018-06-28T09:18:59.065Z,2.45
2018-06-28T09:21:28.030Z,2.80
2018-06-28T09:23:56.917Z,3.58
2018-06-28T09:26:26.151Z,3.22
2018-06-28T09:28:55.026Z,3.10
2018-06-28T09:31:23.920Z,4.03
2018-06-28T09:33:52.744Z,5.72
2018-06-28T09:36:21.599Z,4.60
2018-06-28T09:38:50.482Z,6.75
2018-06-28T09:41:19.370Z,5.30
2018-06-28T09:43:48.224Z,4.17
2018-06-28T09:46:17.068Z,3.75
2018-06-28T09:48:46.128Z,4.03
2018-06-28T09:51:14.885Z,3.98
2018-06-28T09:53:43.776Z,4.92
2018-06-28T09:56:12.600Z,4.20
2018-06-28T09:58:41.531Z,4.28
2018-06-28T10:01:10.378Z,4.67
2018-06-28T10:03:39.600Z,4.15
2018-06-28T10:06:08.441Z,4.12
2018-06-28T10:08:37.311Z,4.15
2018-06-28T10:11:06.299Z,4.97
2018-06-28T10:13:35.145Z,4.30
2018-06-28T10:16:04.029Z,5.55
2018-06-28T10:18:32.907Z,4.12
2018-06-28T10:21:01.801Z,4.08
2018-06-28T10:23:30.755Z,4.95
2018-06-28T10:26:02.449Z,4.08
2018-06-28T10:28:31.303Z,4.60
2018-06-28T10:31:00.230Z,3.90
2018-06-28T10:33:29.026Z,5.80
2018-06-28T10:35:57.965Z,5.15
2018-06-28T10:38:28.309Z,3.85
2018-06-28T10:40:57.187Z,4.25
2018-06-28T10:43:26.213Z,4.12
2018-06-28T10:45:55.139Z,5.40
2018-06-28T10:48:23.980Z,9.78
2018-06-28T10:50:52.860Z,5.60
2018-06-28T10:53:21.693Z,4.78
2018-06-28T10:55:50.683Z,8.28
2018-06-28T10:58:19.579Z,10.70
2018-06-28T11:00:48.444Z,5.53
2018-06-28T11:03:17.290Z,4.10
2018-06-28T11:05:46.138Z,5.05
2018-06-28T11:08:15.085Z,7.15
2018-06-28T11:10:43.967Z,4.25
2018-06-28T11:13:12.801Z,4.78
2018-06-28T11:15:41.634Z,3.90
2018-06-28T11:18:10.812Z,3.98
2018-06-28T11:20:39.681Z,4.15
2018-06-28T11:23:09.080Z,5.03
2018-06-28T11:25:38.002Z,3.90
2018-06-28T11:28:06.902Z,4.30
2018-06-28T11:30:53.368Z,4.15
2018-06-28T11:33:22.205Z,4.22
2018-06-28T11:35:51.135Z,3.72
2018-06-28T11:38:19.975Z,6.75
2018-06-28T11:40:48.819Z,4.28
2018-06-28T11:43:17.695Z,4.83
2018-06-28T11:45:46.590Z,3.98
2018-06-28T11:48:15.478Z,3.75
2018-06-28T11:50:44.538Z,4.15
2018-06-28T11:53:13.529Z,4.00
2018-06-28T11:55:42.392Z,3.47
2018-06-28T11:58:11.401Z,3.60
2018-06-28T12:00:40.291Z,3.15
2018-06-28T12:03:09.153Z,3.33
2018-06-28T12:05:38.085Z,3.15
2018-06-28T12:08:06.899Z,3.92
2018-06-28T12:10:35.733Z,3.30
2018-06-28T12:13:04.862Z,4.75
2018-06-28T12:15:34.955Z,3.77
2018-06-28T12:18:03.797Z,3.45
2018-06-28T12:20:32.643Z,3.17
2018-06-28T12:23:01.544Z,2.98
2018-06-28T12:25:30.490Z,4.83
2018-06-28T12:27:59.565Z,4.15
2018-06-28T12:30:28.407Z,4.45
2018-06-28T12:32:57.257Z,3.20
2018-06-28T12:35:26.152Z,2.62
2018-06-28T12:37:55.125Z,4.87
2018-06-28T12:40:23.980Z,8.40
2018-06-28T12:42:52.820Z,3.15
2018-06-28T12:45:21.726Z,3.15
2018-06-28T12:48:16.384Z,3.67
2018-06-28T12:50:45.261Z,2.83
2018-06-28T12:53:14.111Z,7.65
2018-06-28T12:56:25.965Z,4.45
2018-06-28T12:58:57.949Z,3.27
2018-06-28T13:01:27.455Z,3.17
2018-06-28T13:03:56.633Z,3.98
2018-06-28T13:06:25.521Z,10.03
2018-06-28T13:08:55.061Z,3.00
2018-06-28T13:11:24.141Z,2.47
2018-06-28T13:13:53.341Z,3.50
2018-06-28T13:16:23.254Z,3.70
2018-06-28T13:18:52.107Z,2.83
2018-06-28T13:21:20.947Z,5.00
2018-06-28T13:23:49.783Z,2.47
2018-06-28T13:26:19.014Z,2.75
2018-06-28T13:28:48.042Z,2.50
2018-06-28T13:31:16.866Z,2.95
2018-06-28T13:33:45.715Z,2.85
2018-06-28T13:36:14.589Z,2.70
2018-06-28T13:38:43.454Z,2.87
2018-06-28T13:41:12.458Z,2.60
2018-06-28T13:43:41.282Z,3.67
2018-06-28T13:46:10.232Z,2.77
2018-06-28T13:48:39.194Z,2.58
2018-06-28T13:51:08.129Z,3.37
2018-06-28T13:53:37.070Z,3.75
2018-06-28T13:56:06.078Z,4.12
2018-06-28T13:58:35.035Z,2.92
2018-06-28T14:01:03.924Z,5.05
2018-06-28T14:03:32.815Z,4.62
2018-06-28T14:06:01.760Z,2.98
2018-06-28T14:08:30.635Z,4.35
2018-06-28T14:10:59.611Z,3.42
2018-06-28T14:13:28.528Z,2.95
2018-06-28T14:15:57.417Z,3.30
2018-06-28T14:18:26.317Z,3.58
2018-06-28T14:20:55.181Z,3.10
2018-06-28T14:23:24.218Z,3.12
2018-06-28T14:25:53.197Z,5.12
2018-06-28T14:28:21.962Z,3.30
2018-06-28T14:30:50.866Z,3.55
2018-06-28T14:33:19.752Z,3.15
2018-06-28T14:35:48.601Z,3.40
2018-06-28T14:38:17.459Z,4.53
2018-06-28T14:40:46.314Z,3.30
2018-06-28T14:43:15.132Z,3.92
2018-06-28T14:45:45.230Z,7.70
2018-06-28T14:48:14.093Z,11.43
2018-06-28T14:50:42.959Z,8.00
2018-06-28T14:53:11.791Z,6.33
2018-06-28T14:55:40.648Z,4.40
2018-06-28T14:58:09.489Z,5.15
2018-06-28T15:00:38.391Z,3.20
2018-06-28T15:03:07.257Z,3.15
2018-06-28T15:05:36.139Z,2.85
2018-06-28T15:08:05.038Z,2.65
2018-06-28T15:10:33.918Z,2.87
2018-06-28T15:13:02.807Z,5.65
2018-06-28T15:15:31.679Z,3.15
2018-06-28T15:18:00.513Z,2.77
2018-06-28T15:20:29.393Z,3.77
2018-06-28T15:22:58.277Z,3.50
2018-06-28T15:25:27.119Z,3.00
2018-06-28T15:27:56.011Z,2.77
2018-06-28T15:30:28.135Z,2.70
2018-06-28T15:32:57.085Z,5.53
2018-06-28T15:35:25.892Z,3.67
2018-06-28T15:37:54.706Z,3.35
2018-06-28T15:40:23.573Z,3.50
2018-06-28T15:42:52.462Z,3.08
2018-06-28T15:45:21.462Z,3.60
2018-06-28T15:47:50.935Z,3.47
2018-06-28T15:50:19.749Z,2.62
2018-06-28T15:52:56.024Z,3.20
2018-06-28T15:55:24.898Z,3.30
2018-06-28T15:57:53.788Z,2.80
2018-06-28T16:00:22.616Z,3.10
2018-06-28T16:02:51.469Z,2.70
2018-06-28T16:05:20.313Z,3.92
2018-06-28T16:07:49.151Z,5.33
2018-06-28T16:10:18.037Z,18.92
2018-06-28T16:12:47.007Z,10.60
2018-06-28T16:15:15.861Z,7.35
2018-06-28T16:17:44.717Z,5.20
2018-06-28T16:20:13.780Z,5.97
2018-06-28T16:22:42.606Z,8.90
2018-06-28T16:25:11.513Z,9.25
2018-06-28T16:27:40.385Z,2.70
2018-06-28T16:30:09.217Z,2.77
2018-06-28T16:32:38.065Z,2.60
2018-06-28T16:35:06.998Z,3.15
2018-06-28T16:37:35.854Z,3.10
2018-06-28T16:40:04.815Z,6.00
2018-06-28T16:42:33.658Z,3.75
2018-06-28T16:45:02.575Z,3.70
2018-06-28T16:47:31.432Z,2.80
2018-06-28T16:50:00.328Z,3.95
2018-06-28T16:52:29.172Z,2.80
2018-06-28T16:54:57.969Z,3.27
2018-06-28T16:57:26.799Z,3.20
2018-06-28T16:59:55.687Z,2.83
2018-06-28T17:02:24.488Z,3.10
2018-06-28T17:04:53.310Z,4.72
2018-06-28T17:07:22.165Z,3.55
2018-06-28T17:09:51.022Z,3.22
2018-06-28T17:12:19.860Z,3.90
2018-06-28T17:14:48.721Z,3.72
2018-06-28T17:17:17.583Z,3.00
2018-06-28T17:19:46.602Z,3.27
2018-06-28T17:22:16.410Z,2.75
2018-06-28T17:24:45.226Z,3.12
2018-06-28T17:27:14.066Z,2.98
2018-06-28T17:29:42.922Z,3.08
2018-06-28T17:32:11.801Z,2.72
2018-06-28T17:34:40.666Z,2.70
2018-06-28T17:37:09.499Z,6.45
2018-06-28T17:39:38.419Z,6.30
2018-06-28T17:42:07.250Z,2.87
2018-06-28T17:44:39.392Z,3.42
2018-06-28T17:47:08.236Z,3.10
2018-06-28T17:49:37.105Z,3.15
2018-06-28T17:52:05.928Z,2.92
2018-06-28T17:54:34.773Z,3.33
2018-06-28T17:57:03.641Z,2.62
2018-06-28T17:59:32.487Z,3.30
2018-06-28T18:02:01.348Z,3.20
2018-06-28T18:04:30.217Z,3.17
2018-06-28T18:06:59.062Z,2.77
2018-06-28T18:09:27.893Z,2.70
2018-06-28T18:11:56.757Z,2.62
2018-06-28T18:14:25.610Z,2.77
2018-06-28T18:16:54.534Z,2.77
2018-06-28T18:19:23.386Z,2.60
2018-06-28T18:21:52.213Z,3.05
2018-06-28T18:24:21.088Z,5.53
2018-06-28T18:26:50.073Z,3.40
2018-06-28T18:29:18.934Z,2.75
2018-06-28T18:31:47.754Z,2.52
2018-06-28T18:34:16.597Z,3.42
2018-06-28T18:36:45.472Z,3.08
2018-06-28T18:39:14.340Z,7.08
2018-06-28T18:41:43.195Z,2.80
2018-06-28T18:44:12.064Z,3.98
2018-06-28T18:46:40.907Z,4.50
2018-06-28T18:49:09.882Z,2.40
2018-06-28T18:51:38.749Z,2.20
2018-06-28T18:54:07.591Z,2.50
2018-06-28T18:56:36.444Z,3.00
2018-06-28T18:59:05.305Z,2.90
2018-06-28T19:01:34.328Z,2.55
2018-06-28T19:04:03.191Z,2.52
2018-06-28T19:06:32.110Z,2.85
2018-06-28T19:09:00.969Z,3.22
2018-06-28T19:11:29.890Z,3.08
2018-06-28T19:14:16.496Z,3.08
2018-06-28T19:16:58.064Z,3.63
2018-06-28T19:19:26.925Z,2.50
2018-06-28T19:22:13.566Z,2.72
2018-06-28T19:24:42.452Z,3.27
2018-06-28T19:27:11.344Z,4.92
2018-06-28T19:29:58.282Z,2.37
2018-06-28T19:32:34.551Z,3.17
2018-06-28T19:35:03.770Z,3.02
2018-06-28T19:37:51.597Z,2.47
2018-06-28T19:40:38.217Z,2.77
2018-06-28T19:43:08.661Z,2.10
2018-06-28T19:45:37.500Z,2.47
2018-06-28T19:48:06.373Z,3.15
2018-06-28T19:50:53.177Z,1.97
2018-06-28T19:53:22.068Z,1.80
2018-06-28T19:55:50.958Z,3.30
2018-06-28T19:58:19.949Z,3.80
2018-06-28T20:01:06.765Z,4.27
2018-06-28T20:03:53.628Z,3.83
2018-06-28T20:06:22.472Z,2.17
2018-06-28T20:08:51.305Z,3.87
2018-06-28T20:11:20.252Z,2.10
2018-06-28T20:14:07.009Z,3.07
2018-06-28T20:16:53.438Z,1.50
2018-06-28T20:19:39.754Z,1.60
2018-06-28T20:22:08.652Z,1.77
2018-06-28T20:24:37.571Z,1.70
2018-06-28T20:27:24.254Z,1.63
2018-06-28T20:30:10.993Z,4.17
2018-06-28T20:32:57.668Z,2.30
2018-06-28T20:35:34.301Z,1.60
2018-06-28T20:38:03.131Z,2.00
2018-06-28T20:40:31.992Z,1.50
2018-06-28T20:43:00.819Z,3.10
2018-06-28T20:45:29.659Z,4.87
2018-06-28T20:47:58.507Z,2.90
2018-06-28T20:50:27.363Z,1.73
2018-06-28T20:52:56.233Z,2.43
2018-06-28T20:55:25.093Z,1.90
2018-06-28T20:57:53.981Z,1.70
2018-06-28T21:00:22.861Z,1.70
2018-06-28T21:02:51.730Z,2.23
2018-06-28T21:05:20.641Z,3.10
2018-06-28T21:07:49.489Z,1.77
2018-06-28T21:10:18.361Z,1.83
2018-06-28T21:12:47.189Z,1.73
2018-06-28T21:15:16.079Z,2.70
2018-06-28T21:17:44.954Z,5.33
2018-06-28T21:20:13.980Z,4.00
2018-06-28T21:22:42.854Z,1.67
2018-06-28T21:25:11.821Z,2.57
2018-06-28T21:27:40.694Z,1.80
2018-06-28T21:30:09.555Z,2.17
2018-06-28T21:32:38.398Z,2.00
2018-06-28T21:35:07.439Z,2.57
2018-06-28T21:37:36.334Z,2.97
2018-06-28T21:40:05.377Z,2.13
2018-06-28T21:42:37.363Z,3.30
2018-06-28T21:45:06.219Z,2.35
2018-06-28T21:47:35.117Z,1.63
2018-06-28T21:50:04.017Z,2.40
2018-06-28T21:52:32.845Z,1.77
2018-06-28T21:55:01.700Z,1.70
2018-06-28T21:57:30.518Z,2.67
2018-06-28T21:59:59.415Z,2.00
2018-06-28T22:02:28.275Z,4.63
2018-06-28T22:04:57.270Z,7.97
2018-06-28T22:07:26.128Z,5.30
2018-06-28T22:09:57.699Z,3.00
2018-06-28T22:12:26.579Z,4.67
2018-06-28T22:14:55.421Z,3.40
2018-06-28T22:17:24.287Z,5.20
2018-06-28T22:19:53.199Z,3.20
2018-06-28T22:22:21.963Z,3.30
2018-06-28T22:24:50.829Z,3.53
2018-06-28T22:27:19.685Z,3.20
2018-06-28T22:29:48.514Z,3.13
2018-06-28T22:32:17.382Z,3.90
2018-06-28T22:34:46.242Z,5.07
2018-06-28T22:37:15.077Z,4.80
2018-06-28T22:39:43.951Z,5.83
2018-06-28T22:42:12.805Z,3.77
2018-06-28T22:44:41.674Z,4.47
2018-06-28T22:48:08.602Z,5.83
2018-06-28T22:50:37.489Z,3.90
2018-06-28T22:53:06.699Z,5.03
2018-06-28T22:55:35.555Z,3.77
2018-06-28T22:58:04.399Z,4.80
2018-06-28T23:00:33.257Z,3.07
2018-06-28T23:03:02.129Z,4.77
2018-06-28T23:05:30.984Z,3.10
2018-06-28T23:07:59.844Z,3.87
2018-06-28T23:10:28.723Z,3.33
2018-06-28T23:12:57.610Z,2.77
2018-06-28T23:15:26.460Z,3.93
2018-06-28T23:17:55.324Z,4.43
2018-06-28T23:20:24.213Z,3.87
2018-06-28T23:22:53.366Z,2.93
2018-06-28T23:25:22.573Z,3.23
2018-06-28T23:27:51.964Z,2.90
2018-06-28T23:30:21.065Z,2.63
2018-06-28T23:32:49.977Z,3.50
2018-06-28T23:35:18.810Z,2.47
2018-06-28T23:37:47.644Z,2.63
2018-06-28T23:40:16.507Z,3.53
2018-06-28T23:42:45.334Z,3.80
2018-06-28T23:45:14.181Z,5.00
2018-06-28T23:47:43.075Z,2.60
2018-06-28T23:50:11.894Z,2.93
2018-06-28T23:52:47.110Z,2.83
2018-06-28T23:55:15.968Z,3.17
2018-06-28T23:57:44.785Z,2.83
